createdAt,value
2019-03-15T00:00:29.051Z,2.60
2019-03-15T00:02:55.418Z,2.77
2019-03-15T00:05:21.799Z,2.90
2019-03-15T00:07:48.366Z,2.57
2019-03-15T00:10:14.808Z,2.77
2019-03-15T00:12:41.180Z,2.60
2019-03-15T00:15:07.632Z,2.97
2019-03-15T00:17:34.005Z,2.70
2019-03-15T00:20:00.398Z,2.80
2019-03-15T00:22:26.867Z,2.47
2019-03-15T00:24:53.323Z,3.50
2019-03-15T00:27:19.837Z,2.50
2019-03-15T00:29:46.176Z,2.40
2019-03-15T00:32:12.959Z,2.10
2019-03-15T00:34:39.508Z,2.40
2019-03-15T00:37:05.891Z,2.60
2019-03-15T00:39:32.354Z,2.17
2019-03-15T00:41:58.831Z,2.13
2019-03-15T00:44:25.184Z,2.27
2019-03-15T00:46:51.755Z,2.27
2019-03-15T00:49:18.207Z,2.70
2019-03-15T00:51:44.777Z,2.67
2019-03-15T00:54:11.156Z,2.93
2019-03-15T00:56:37.525Z,2.53
2019-03-15T00:59:04.076Z,2.60
2019-03-15T01:01:30.444Z,2.97
2019-03-15T01:03:56.799Z,3.00
2019-03-15T01:06:23.180Z,2.77
2019-03-15T01:08:49.778Z,3.30
2019-03-15T01:11:16.167Z,3.57
2019-03-15T01:13:42.520Z,3.57
2019-03-15T01:16:09.074Z,3.50
2019-03-15T01:18:35.659Z,3.30
2019-03-15T01:21:02.108Z,3.43
2019-03-15T01:23:28.586Z,3.30
2019-03-15T01:25:55.156Z,3.77
2019-03-15T01:28:21.539Z,3.03
2019-03-15T01:30:48.036Z,3.10
2019-03-15T01:33:14.400Z,3.13
2019-03-15T01:35:40.859Z,3.20
2019-03-15T01:38:07.349Z,3.70
2019-03-15T01:40:33.806Z,3.23
2019-03-15T01:43:00.169Z,3.27
2019-03-15T01:45:26.625Z,2.80
2019-03-15T01:47:53.106Z,3.67
2019-03-15T01:50:19.489Z,2.93
2019-03-15T01:52:45.983Z,3.13
2019-03-15T01:55:12.456Z,3.07
2019-03-15T01:57:38.826Z,3.20
2019-03-15T02:00:07.181Z,2.80
2019-03-15T02:02:33.756Z,2.57
2019-03-15T02:05:00.315Z,2.57
2019-03-15T02:07:26.778Z,2.40
2019-03-15T02:09:53.246Z,2.60
2019-03-15T02:12:19.714Z,2.43
2019-03-15T02:14:46.076Z,2.43
2019-03-15T02:17:12.452Z,2.53
2019-03-15T02:19:39.111Z,2.90
2019-03-15T02:22:06.958Z,2.43
2019-03-15T02:24:33.427Z,2.40
2019-03-15T02:26:59.922Z,2.33
2019-03-15T02:29:26.378Z,2.70
2019-03-15T02:31:52.877Z,2.77
2019-03-15T02:34:19.350Z,3.00
2019-03-15T02:36:45.701Z,2.63
2019-03-15T02:39:12.263Z,2.77
2019-03-15T02:41:38.654Z,2.70
2019-03-15T02:44:05.033Z,2.67
2019-03-15T02:46:31.391Z,2.67
2019-03-15T02:48:57.862Z,3.20
2019-03-15T02:51:24.406Z,3.93
2019-03-15T02:53:50.925Z,3.80
2019-03-15T02:56:17.389Z,4.50
2019-03-15T02:58:43.784Z,4.00
2019-03-15T03:01:10.340Z,4.07
2019-03-15T03:03:36.713Z,4.80
2019-03-15T03:06:03.164Z,4.93
2019-03-15T03:08:29.560Z,4.80
2019-03-15T03:10:56.362Z,5.27
2019-03-15T03:13:22.915Z,5.30
2019-03-15T03:15:49.352Z,5.20
2019-03-15T03:18:15.746Z,5.10
2019-03-15T03:20:42.211Z,5.20
2019-03-15T03:23:08.585Z,4.87
2019-03-15T03:25:35.033Z,5.80
2019-03-15T03:28:01.546Z,4.40
2019-03-15T03:30:27.986Z,5.13
2019-03-15T03:32:54.453Z,4.10
2019-03-15T03:35:20.911Z,5.03
2019-03-15T03:37:47.314Z,4.63
2019-03-15T03:40:13.752Z,4.53
2019-03-15T03:42:40.258Z,4.07
2019-03-15T03:45:07.415Z,4.60
2019-03-15T03:47:33.883Z,4.90
2019-03-15T03:50:00.445Z,4.07
2019-03-15T03:52:26.898Z,4.07
2019-03-15T03:54:53.502Z,4.33
2019-03-15T03:57:19.960Z,3.83
2019-03-15T03:59:46.544Z,4.40
2019-03-15T04:02:12.987Z,4.10
2019-03-15T04:04:39.471Z,4.50
2019-03-15T04:07:06.032Z,4.07
2019-03-15T04:09:32.420Z,4.07
2019-03-15T04:11:58.985Z,4.47
2019-03-15T04:14:25.457Z,4.40
2019-03-15T04:16:51.895Z,4.17
2019-03-15T04:19:18.277Z,4.40
2019-03-15T04:21:44.636Z,4.00
2019-03-15T04:24:13.253Z,3.90
2019-03-15T04:26:39.707Z,4.10
2019-03-15T04:29:06.075Z,3.90
2019-03-15T04:31:32.437Z,3.93
2019-03-15T04:33:59.003Z,4.07
2019-03-15T04:36:25.551Z,3.37
2019-03-15T04:38:51.933Z,3.50
2019-03-15T04:41:18.287Z,3.30
2019-03-15T04:43:44.648Z,3.20
2019-03-15T04:46:11.038Z,4.10
2019-03-15T04:48:37.526Z,3.50
2019-03-15T04:51:03.979Z,3.40
2019-03-15T04:53:30.419Z,3.40
2019-03-15T04:55:56.798Z,4.07
2019-03-15T04:58:23.263Z,3.83
2019-03-15T05:00:49.726Z,3.23
2019-03-15T05:03:16.171Z,3.03
2019-03-15T05:05:42.556Z,3.27
2019-03-15T05:08:08.935Z,3.20
2019-03-15T05:10:35.410Z,3.10
2019-03-15T05:13:01.993Z,3.23
2019-03-15T05:15:28.540Z,4.30
2019-03-15T05:17:54.994Z,3.57
2019-03-15T05:20:21.466Z,4.20
2019-03-15T05:22:47.839Z,3.37
2019-03-15T05:25:14.298Z,3.37
2019-03-15T05:27:40.839Z,4.47
2019-03-15T05:30:08.824Z,4.20
2019-03-15T05:32:35.280Z,4.37
2019-03-15T05:35:01.757Z,3.80
2019-03-15T05:37:28.115Z,4.83
2019-03-15T05:39:54.602Z,4.33
2019-03-15T05:42:21.156Z,5.00
2019-03-15T05:44:47.630Z,5.60
2019-03-15T05:47:13.983Z,5.20
2019-03-15T05:49:40.359Z,6.17
2019-03-15T05:52:06.823Z,4.83
2019-03-15T05:54:33.338Z,5.70
2019-03-15T05:56:59.797Z,4.60
2019-03-15T05:59:26.167Z,5.97
2019-03-15T06:01:52.526Z,5.33
2019-03-15T06:04:19.006Z,5.70
2019-03-15T06:06:45.458Z,5.80
2019-03-15T06:09:11.924Z,6.63
2019-03-15T06:11:38.280Z,6.50
2019-03-15T06:14:04.860Z,6.13
2019-03-15T06:16:31.207Z,6.10
2019-03-15T06:18:57.793Z,5.17
2019-03-15T06:21:24.260Z,5.13
2019-03-15T06:23:51.124Z,5.73
2019-03-15T06:26:17.704Z,5.53
2019-03-15T06:28:44.160Z,5.30
2019-03-15T06:31:10.545Z,4.93
2019-03-15T06:33:37.105Z,4.60
2019-03-15T06:36:03.480Z,4.73
2019-03-15T06:38:29.844Z,4.93
2019-03-15T06:40:56.437Z,4.57
2019-03-15T06:43:22.985Z,4.83
2019-03-15T06:45:49.388Z,5.00
2019-03-15T06:48:15.753Z,5.03
2019-03-15T06:50:42.132Z,4.40
2019-03-15T06:53:08.628Z,3.80
2019-03-15T06:55:35.015Z,4.80
2019-03-15T06:58:01.488Z,4.23
2019-03-15T07:00:27.981Z,4.20
2019-03-15T07:02:54.537Z,4.13
2019-03-15T07:05:21.027Z,3.77
2019-03-15T07:07:47.698Z,3.63
2019-03-15T07:10:14.196Z,4.37
2019-03-15T07:12:40.923Z,3.53
2019-03-15T07:15:09.749Z,3.70
2019-03-15T07:17:36.221Z,3.23
2019-03-15T07:20:04.405Z,3.50
2019-03-15T07:22:30.855Z,2.93
2019-03-15T07:24:57.223Z,3.53
2019-03-15T07:27:23.677Z,3.30
2019-03-15T07:29:50.243Z,3.67
2019-03-15T07:32:16.717Z,3.40
2019-03-15T07:34:43.100Z,3.00
2019-03-15T07:37:09.495Z,2.97
2019-03-15T07:39:35.958Z,3.57
2019-03-15T07:42:02.626Z,3.63
2019-03-15T07:44:28.972Z,4.40
2019-03-15T07:46:55.455Z,4.10
2019-03-15T07:49:21.817Z,3.20
2019-03-15T07:51:48.306Z,3.60
2019-03-15T07:54:14.718Z,4.13
2019-03-15T07:56:41.250Z,4.17
2019-03-15T07:59:07.714Z,3.73
2019-03-15T08:01:34.283Z,3.53
2019-03-15T08:04:00.638Z,3.63
2019-03-15T08:06:34.844Z,3.77
2019-03-15T08:08:55.396Z,4.30
2019-03-15T08:11:21.817Z,4.07
2019-03-15T08:13:48.373Z,4.30
2019-03-15T08:16:14.853Z,3.93
2019-03-15T08:18:41.325Z,4.70
2019-03-15T08:21:07.887Z,4.87
2019-03-15T08:23:34.360Z,4.90
2019-03-15T08:26:00.867Z,5.50
2019-03-15T08:28:27.774Z,4.37
2019-03-15T08:30:54.384Z,4.33
2019-03-15T08:33:20.767Z,3.93
2019-03-15T08:35:47.470Z,4.00
2019-03-15T08:38:13.922Z,3.80
2019-03-15T08:40:40.523Z,3.87
2019-03-15T08:43:07.035Z,4.37
2019-03-15T08:45:33.702Z,4.17
2019-03-15T08:48:00.147Z,3.80
2019-03-15T08:50:26.656Z,3.47
2019-03-15T08:52:54.231Z,3.73
2019-03-15T08:55:21.033Z,3.33
2019-03-15T08:57:47.600Z,3.00
2019-03-15T09:00:14.655Z,2.90
2019-03-15T09:02:41.277Z,2.63
2019-03-15T09:05:08.944Z,2.50
2019-03-15T09:07:35.463Z,2.97
2019-03-15T09:10:03.830Z,2.87
2019-03-15T09:12:30.541Z,3.10
2019-03-15T09:14:56.992Z,3.30
2019-03-15T09:17:23.489Z,6.37
2019-03-15T09:19:49.927Z,8.07
2019-03-15T09:22:16.389Z,7.33
2019-03-15T09:24:42.768Z,4.83
2019-03-15T09:27:10.469Z,2.47
2019-03-15T09:29:37.192Z,1.40
2019-03-15T09:32:08.681Z,1.50
2019-03-15T09:34:31.910Z,1.80
2019-03-15T09:36:58.303Z,1.80
2019-03-15T09:39:24.749Z,1.90
2019-03-15T09:41:51.234Z,2.23
2019-03-15T09:44:17.595Z,2.10
2019-03-15T09:46:43.966Z,2.00
2019-03-15T09:49:10.419Z,1.60
2019-03-15T09:51:36.908Z,1.13
2019-03-15T09:54:03.312Z,1.23
2019-03-15T09:56:29.712Z,0.90
2019-03-15T09:58:56.185Z,0.90
2019-03-15T10:01:34.873Z,1.23
2019-03-15T10:03:50.944Z,1.00
2019-03-15T10:06:19.576Z,0.80
2019-03-15T10:08:45.722Z,1.10
2019-03-15T10:11:12.195Z,1.10
2019-03-15T10:13:38.597Z,1.13
2019-03-15T10:16:04.952Z,0.90
2019-03-15T10:18:31.322Z,0.90
2019-03-15T10:20:57.782Z,0.80
2019-03-15T10:23:24.164Z,0.90
2019-03-15T10:25:51.410Z,1.00
2019-03-15T10:28:17.881Z,0.80
2019-03-15T10:30:44.253Z,0.90
2019-03-15T10:33:10.619Z,0.73
2019-03-15T10:35:36.997Z,1.00
2019-03-15T10:38:03.496Z,1.13
2019-03-15T10:40:30.055Z,0.90
2019-03-15T10:42:56.457Z,0.97
2019-03-15T10:45:23.029Z,1.00
2019-03-15T10:47:49.419Z,1.00
2019-03-15T10:50:16.302Z,1.30
2019-03-15T10:52:42.763Z,1.20
2019-03-15T10:55:09.480Z,1.33
2019-03-15T10:57:35.893Z,1.20
2019-03-15T11:00:03.940Z,1.63
2019-03-15T11:02:30.335Z,1.50
2019-03-15T11:04:56.706Z,1.53
2019-03-15T11:07:23.209Z,1.60
2019-03-15T11:09:49.696Z,1.27
2019-03-15T11:12:16.266Z,1.53
2019-03-15T11:14:42.629Z,1.30
2019-03-15T11:17:09.068Z,1.33
2019-03-15T11:19:35.426Z,1.20
2019-03-15T11:22:02.054Z,1.10
2019-03-15T11:24:28.431Z,1.23
2019-03-15T11:26:54.923Z,1.20
2019-03-15T11:29:21.528Z,1.43
2019-03-15T11:31:47.957Z,1.40
2019-03-15T11:34:14.532Z,1.50
2019-03-15T11:36:40.996Z,1.40
2019-03-15T11:39:07.380Z,1.77
2019-03-15T11:41:33.910Z,1.60
2019-03-15T11:44:00.332Z,1.70
2019-03-15T11:46:26.687Z,1.60
2019-03-15T11:48:53.293Z,1.67
2019-03-15T11:51:19.751Z,1.40
2019-03-15T11:53:46.250Z,1.63
2019-03-15T11:56:22.292Z,1.90
2019-03-15T11:58:40.912Z,1.50
2019-03-15T12:01:07.603Z,1.73
2019-03-15T12:03:34.044Z,1.50
2019-03-15T12:06:00.648Z,2.30
2019-03-15T12:08:27.120Z,2.03
2019-03-15T12:10:53.642Z,2.07
2019-03-15T12:13:20.134Z,2.10
2019-03-15T12:15:46.481Z,2.47
2019-03-15T12:18:12.859Z,1.90
2019-03-15T12:20:39.237Z,2.20
2019-03-15T12:23:05.645Z,1.90
2019-03-15T12:25:32.048Z,2.00
2019-03-15T12:27:58.411Z,2.20
2019-03-15T12:30:24.778Z,3.07
2019-03-15T12:32:51.150Z,2.40
2019-03-15T12:35:17.575Z,1.60
2019-03-15T12:37:43.948Z,2.23
2019-03-15T12:40:12.320Z,1.97
2019-03-15T12:42:38.836Z,1.60
2019-03-15T12:45:06.892Z,1.67
2019-03-15T12:47:33.248Z,1.60
2019-03-15T12:49:59.722Z,1.70
2019-03-15T12:52:26.180Z,1.50
2019-03-15T12:54:52.573Z,1.30
2019-03-15T12:57:18.920Z,1.20
2019-03-15T12:59:45.283Z,1.30
2019-03-15T13:02:11.643Z,1.30
2019-03-15T13:04:38.029Z,1.20
2019-03-15T13:07:04.375Z,1.20
2019-03-15T13:09:30.749Z,1.67
2019-03-15T13:11:57.092Z,1.40
2019-03-15T13:14:23.572Z,1.10
2019-03-15T13:16:50.036Z,1.40
2019-03-15T13:19:16.511Z,1.00
2019-03-15T13:21:43.080Z,0.90
2019-03-15T13:24:09.453Z,0.80
2019-03-15T13:26:35.798Z,0.70
2019-03-15T13:29:02.259Z,0.73
2019-03-15T13:31:28.624Z,0.77
2019-03-15T13:33:55.037Z,1.00
2019-03-15T13:36:21.387Z,0.90
2019-03-15T13:38:47.879Z,0.90
2019-03-15T13:41:14.240Z,0.90
2019-03-15T13:43:40.624Z,0.80
2019-03-15T13:46:07.024Z,0.90
2019-03-15T13:48:33.396Z,0.70
2019-03-15T13:50:59.760Z,0.80
2019-03-15T13:53:26.133Z,0.80
2019-03-15T13:55:52.504Z,1.13
2019-03-15T13:58:18.879Z,0.53
2019-03-15T14:00:45.234Z,0.70
2019-03-15T14:03:11.579Z,0.70
2019-03-15T14:05:38.068Z,0.50
2019-03-15T14:08:11.556Z,0.80
2019-03-15T14:10:32.697Z,0.77
2019-03-15T14:12:59.044Z,0.83
2019-03-15T14:15:25.438Z,1.00
2019-03-15T14:17:51.926Z,1.00
2019-03-15T14:20:18.425Z,0.90
2019-03-15T14:22:44.775Z,0.70
2019-03-15T14:25:12.158Z,1.00
2019-03-15T14:27:38.551Z,0.53
2019-03-15T14:30:06.933Z,0.50
2019-03-15T14:32:33.286Z,0.60
2019-03-15T14:34:59.757Z,0.60
2019-03-15T14:37:26.298Z,0.67
2019-03-15T14:39:52.901Z,0.80
2019-03-15T14:42:19.500Z,0.80
2019-03-15T14:44:46.125Z,0.70
2019-03-15T14:47:12.523Z,0.80
2019-03-15T14:49:39.100Z,0.53
2019-03-15T14:52:05.553Z,1.00
2019-03-15T14:54:32.167Z,0.60
2019-03-15T14:56:58.522Z,0.80
2019-03-15T14:59:24.883Z,0.70
2019-03-15T15:01:51.339Z,0.70
2019-03-15T15:04:17.806Z,0.60
2019-03-15T15:06:44.253Z,0.50
2019-03-15T15:09:10.636Z,0.70
2019-03-15T15:11:36.993Z,0.90
2019-03-15T15:14:03.454Z,0.60
2019-03-15T15:16:29.831Z,0.70
2019-03-15T15:18:56.212Z,0.80
2019-03-15T15:21:22.693Z,0.70
2019-03-15T15:23:49.153Z,0.60
2019-03-15T15:26:15.517Z,0.67
2019-03-15T15:28:41.873Z,1.00
2019-03-15T15:31:08.253Z,1.43
2019-03-15T15:33:34.603Z,1.23
2019-03-15T15:36:00.983Z,1.00
2019-03-15T15:38:27.335Z,0.93
2019-03-15T15:40:53.707Z,0.90
2019-03-15T15:43:20.097Z,0.73
2019-03-15T15:45:46.533Z,0.73
2019-03-15T15:48:12.998Z,1.00
2019-03-15T15:50:39.364Z,0.60
2019-03-15T15:53:05.715Z,0.90
2019-03-15T15:55:32.140Z,0.97
2019-03-15T15:57:58.489Z,1.10
2019-03-15T16:00:24.873Z,1.73
2019-03-15T16:02:54.382Z,1.00
2019-03-15T16:05:20.852Z,1.30
2019-03-15T16:07:47.308Z,0.70
2019-03-15T16:10:17.400Z,1.07
2019-03-15T16:12:42.383Z,1.20
2019-03-15T16:15:15.754Z,1.17
2019-03-15T16:17:45.288Z,1.00
2019-03-15T16:20:10.487Z,1.00
2019-03-15T16:22:36.963Z,1.20
2019-03-15T16:25:04.549Z,1.10
2019-03-15T16:27:30.925Z,1.00
2019-03-15T16:29:57.313Z,1.50
2019-03-15T16:32:23.667Z,1.40
2019-03-15T16:34:50.163Z,1.40
2019-03-15T16:37:16.520Z,1.10
2019-03-15T16:39:42.876Z,1.30
2019-03-15T16:42:09.232Z,1.30
2019-03-15T16:44:35.616Z,1.37
2019-03-15T16:47:02.020Z,1.20
2019-03-15T16:49:28.726Z,1.30
2019-03-15T16:51:55.114Z,1.00
2019-03-15T16:54:21.678Z,1.40
2019-03-15T16:56:48.080Z,1.37
2019-03-15T16:59:14.433Z,1.30
2019-03-15T17:01:41.701Z,1.43
2019-03-15T17:04:08.088Z,1.67
2019-03-15T17:06:34.723Z,2.07
2019-03-15T17:09:01.107Z,1.50
2019-03-15T17:11:27.492Z,1.20
2019-03-15T17:13:54.110Z,1.20
2019-03-15T17:16:20.598Z,1.20
2019-03-15T17:18:47.032Z,1.50
2019-03-15T17:21:13.475Z,1.30
2019-03-15T17:23:39.919Z,1.80
2019-03-15T17:26:06.400Z,1.80
2019-03-15T17:28:32.849Z,1.00
2019-03-15T17:31:09.181Z,1.20
2019-03-15T17:33:27.584Z,1.30
2019-03-15T17:35:54.118Z,1.70
2019-03-15T17:38:20.496Z,1.43
2019-03-15T17:40:46.971Z,1.63
2019-03-15T17:43:13.305Z,2.40
2019-03-15T17:45:39.767Z,2.17
2019-03-15T17:48:06.151Z,1.87
2019-03-15T17:50:32.544Z,1.27
2019-03-15T17:52:58.967Z,1.10
2019-03-15T17:55:25.374Z,1.07
2019-03-15T17:57:51.931Z,1.67
2019-03-15T18:00:22.091Z,2.00
2019-03-15T18:02:48.717Z,2.07
2019-03-15T18:05:15.290Z,1.73
2019-03-15T18:07:41.659Z,1.50
2019-03-15T18:10:08.317Z,1.17
2019-03-15T18:12:34.895Z,1.30
2019-03-15T18:15:01.248Z,1.20
2019-03-15T18:17:27.727Z,1.70
2019-03-15T18:19:54.156Z,1.40
2019-03-15T18:22:20.659Z,1.20
2019-03-15T18:24:47.003Z,1.30
2019-03-15T18:27:13.577Z,1.37
2019-03-15T18:29:39.953Z,1.53
2019-03-15T18:32:06.315Z,1.40
2019-03-15T18:34:32.657Z,1.30
2019-03-15T18:36:59.052Z,1.50
2019-03-15T18:39:25.503Z,1.57
2019-03-15T18:41:51.952Z,1.70
2019-03-15T18:44:18.697Z,1.60
2019-03-15T18:46:45.171Z,1.60
2019-03-15T18:49:11.631Z,1.73
2019-03-15T18:51:38.014Z,1.70
2019-03-15T18:54:16.771Z,1.80
2019-03-15T18:56:32.687Z,1.47
2019-03-15T18:58:59.290Z,1.50
2019-03-15T19:01:25.728Z,1.67
2019-03-15T19:03:52.078Z,1.73
2019-03-15T19:06:18.447Z,1.60
2019-03-15T19:08:44.798Z,1.90
2019-03-15T19:11:11.300Z,2.17
2019-03-15T19:13:37.856Z,1.90
2019-03-15T19:16:04.316Z,1.73
2019-03-15T19:18:30.691Z,2.50
2019-03-15T19:20:57.147Z,2.60
2019-03-15T19:23:23.546Z,2.40
2019-03-15T19:25:49.892Z,2.50
2019-03-15T19:28:16.368Z,2.63
2019-03-15T19:30:42.734Z,2.27
2019-03-15T19:33:09.191Z,2.23
2019-03-15T19:35:35.539Z,2.03
2019-03-15T19:38:02.016Z,1.90
2019-03-15T19:40:28.462Z,1.70
2019-03-15T19:42:55.031Z,1.57
2019-03-15T19:45:21.583Z,1.67
2019-03-15T19:47:48.132Z,1.10
2019-03-15T19:50:16.406Z,1.10
2019-03-15T19:52:42.798Z,1.10
2019-03-15T19:55:10.192Z,0.97
2019-03-15T19:57:36.675Z,0.80
2019-03-15T20:00:08.207Z,1.13
2019-03-15T20:02:33.412Z,1.13
2019-03-15T20:04:59.771Z,0.97
2019-03-15T20:07:26.363Z,0.93
2019-03-15T20:09:52.789Z,0.70
2019-03-15T20:12:19.368Z,0.70
2019-03-15T20:14:45.823Z,1.20
2019-03-15T20:17:12.368Z,1.17
2019-03-15T20:19:38.918Z,0.90
2019-03-15T20:22:05.323Z,0.80
2019-03-15T20:24:31.904Z,1.00
2019-03-15T20:26:58.513Z,0.70
2019-03-15T20:29:25.006Z,0.60
2019-03-15T20:31:51.709Z,0.90
2019-03-15T20:34:18.256Z,0.90
2019-03-15T20:36:44.837Z,1.00
2019-03-15T20:39:11.425Z,0.77
2019-03-15T20:41:37.979Z,0.80
2019-03-15T20:44:04.575Z,0.83
2019-03-15T20:46:36.166Z,0.60
2019-03-15T20:48:59.416Z,0.77
2019-03-15T20:51:25.792Z,0.83
2019-03-15T20:53:52.291Z,0.80
2019-03-15T20:56:18.944Z,1.10
2019-03-15T20:58:45.692Z,0.77
2019-03-15T21:01:12.433Z,0.90
2019-03-15T21:03:38.846Z,1.07
2019-03-15T21:06:05.246Z,0.80
2019-03-15T21:08:31.841Z,0.90
2019-03-15T21:10:58.413Z,0.80
2019-03-15T21:13:24.791Z,0.90
2019-03-15T21:15:51.554Z,1.00
2019-03-15T21:18:18.037Z,0.90
2019-03-15T21:20:44.397Z,0.87
2019-03-15T21:23:10.958Z,1.03
2019-03-15T21:25:37.415Z,0.90
2019-03-15T21:28:03.780Z,0.67
2019-03-15T21:30:30.147Z,0.70
2019-03-15T21:32:56.540Z,0.80
2019-03-15T21:35:22.998Z,0.80
2019-03-15T21:37:49.472Z,0.90
2019-03-15T21:40:16.732Z,0.80
2019-03-15T21:42:43.114Z,1.07
2019-03-15T21:45:10.072Z,0.67
2019-03-15T21:47:36.553Z,0.70
2019-03-15T21:50:04.835Z,0.80
2019-03-15T21:52:31.197Z,0.60
2019-03-15T21:54:57.575Z,0.70
2019-03-15T21:57:24.035Z,0.70
2019-03-15T21:59:50.502Z,0.90
2019-03-15T22:02:16.971Z,0.80
2019-03-15T22:04:43.347Z,0.80
2019-03-15T22:07:09.711Z,0.80
2019-03-15T22:09:36.071Z,0.70
2019-03-15T22:12:02.627Z,0.90
2019-03-15T22:14:29.104Z,0.80
2019-03-15T22:16:55.465Z,0.80
2019-03-15T22:19:21.857Z,0.70
2019-03-15T22:21:48.326Z,0.50
2019-03-15T22:24:17.729Z,0.63
2019-03-15T22:26:44.063Z,0.33
2019-03-15T22:29:10.463Z,0.70
2019-03-15T22:31:36.836Z,0.77
2019-03-15T22:34:03.316Z,0.67
2019-03-15T22:36:29.893Z,0.57
2019-03-15T22:38:56.358Z,0.50
2019-03-15T22:41:22.919Z,0.50
2019-03-15T22:43:49.377Z,0.30
2019-03-15T22:46:15.865Z,0.50
2019-03-15T22:48:42.260Z,0.50
2019-03-15T22:51:08.719Z,0.60
2019-03-15T22:53:35.199Z,0.40
2019-03-15T22:56:01.837Z,0.50
2019-03-15T22:58:28.254Z,0.50
2019-03-15T23:00:54.691Z,0.60
2019-03-15T23:03:21.174Z,0.50
2019-03-15T23:05:47.561Z,0.30
2019-03-15T23:08:14.017Z,0.70
2019-03-15T23:10:40.390Z,0.50
2019-03-15T23:13:06.789Z,0.50
2019-03-15T23:15:33.259Z,0.53
2019-03-15T23:17:59.602Z,0.43
2019-03-15T23:20:25.984Z,0.57
2019-03-15T23:22:54.886Z,0.50
2019-03-15T23:25:20.616Z,0.40
2019-03-15T23:27:47.071Z,0.50
2019-03-15T23:30:14.139Z,0.50
2019-03-15T23:32:40.604Z,0.40
2019-03-15T23:35:07.035Z,0.53
2019-03-15T23:37:33.496Z,0.60
2019-03-15T23:39:59.881Z,0.40
2019-03-15T23:42:26.443Z,0.70
2019-03-15T23:44:52.932Z,0.80
2019-03-15T23:47:19.296Z,0.60
2019-03-15T23:49:45.866Z,0.60
2019-03-15T23:52:12.324Z,0.67
2019-03-15T23:54:38.833Z,0.77
2019-03-15T23:57:05.215Z,0.60
2019-03-15T23:59:31.583Z,0.60
